Time;durP1;ratioP1;P1;durP2;ratioP2;P2;SDS_P1;SDS_P2;PMS_P1;PMS_P2;Temp;Humidity;BMP_temperature;BMP_pressure;BME280_temperature;BME280_humidity;BME280_pressure;Samples;Min_cycle;Max_cycle;Signal;HPM_P1;HPM_P2
2023/01/30 00:02:06;;;;;;;28.75;20.83;;;6.20;99.90;;;;;;6152775;23;20063;-83
2023/01/30 00:04:32;;;;;;;29.48;20.20;;;6.30;99.90;;;;;;6129536;23;20014;-83
2023/01/30 00:06:57;;;;;;;31.27;21.33;;;6.20;99.90;;;;;;6129472;23;20092;-82
2023/01/30 00:09:23;;;;;;;27.92;19.85;;;6.30;99.90;;;;;;6129151;23;20040;-82
2023/01/30 00:11:48;;;;;;;27.38;19.02;;;6.30;99.90;;;;;;6130393;23;20021;-82
2023/01/30 00:14:14;;;;;;;24.52;18.65;;;6.30;99.90;;;;;;6131038;23;20020;-83
2023/01/30 00:16:41;;;;;;;28.40;18.13;;;6.40;99.90;;;;;;6155371;23;20026;-82
2023/01/30 00:19:07;;;;;;;30.42;19.40;;;6.40;99.90;;;;;;6158959;23;20013;-82
2023/01/30 00:21:32;;;;;;;25.83;19.38;;;6.40;99.90;;;;;;6131961;23;20017;-83
2023/01/30 00:23:59;;;;;;;24.02;17.70;;;6.40;99.90;;;;;;6131849;23;20013;-83
2023/01/30 00:26:25;;;;;;;29.65;18.83;;;6.40;99.90;;;;;;6156950;23;20021;-83
2023/01/30 00:28:51;;;;;;;27.90;18.65;;;6.40;99.90;;;;;;6132609;23;20013;-83
2023/01/30 00:31:16;;;;;;;24.65;17.92;;;6.40;99.90;;;;;;6132025;23;20013;-83
2023/01/30 00:33:42;;;;;;;23.17;16.58;;;6.50;99.90;;;;;;6127395;23;20155;-83
2023/01/30 00:36:09;;;;;;;25.60;16.92;;;6.50;99.90;;;;;;6125982;23;20049;-83
2023/01/30 00:38:35;;;;;;;25.73;14.82;;;6.50;99.90;;;;;;6129453;23;20025;-82
2023/01/30 00:41:00;;;;;;;26.27;15.10;;;6.50;99.90;;;;;;6154999;23;20795;-82
2023/01/30 00:49:15;;;;;;;24.85;12.32;;;6.60;99.90;;;;;;6157581;23;20035;-83
2023/01/30 00:51:41;;;;;;;20.13;10.98;;;6.70;99.90;;;;;;6159133;23;20029;-83
2023/01/30 00:54:07;;;;;;;18.25;10.40;;;6.70;99.90;;;;;;6160409;23;20096;-83
2023/01/30 00:56:32;;;;;;;13.45;9.20;;;6.80;99.90;;;;;;6132194;23;20018;-83
2023/01/30 00:58:58;;;;;;;19.00;10.60;;;6.80;99.90;;;;;;6159252;23;20533;-82
2023/01/30 01:01:23;;;;;;;20.23;9.32;;;6.80;99.90;;;;;;6157981;23;20037;-83
2023/01/30 01:03:49;;;;;;;22.63;10.27;;;6.80;99.90;;;;;;6133510;23;20017;-83
2023/01/30 01:06:15;;;;;;;18.40;10.90;;;6.90;99.90;;;;;;6132686;23;20028;-82
2023/01/30 01:08:40;;;;;;;18.70;10.40;;;6.90;99.90;;;;;;6126652;23;20020;-83
2023/01/30 01:11:06;;;;;;;22.23;10.43;;;6.80;99.90;;;;;;6127317;23;20021;-83
2023/01/30 01:13:32;;;;;;;19.65;10.10;;;6.80;99.90;;;;;;6128344;23;20045;-82
2023/01/30 01:15:57;;;;;;;18.50;10.82;;;6.80;99.90;;;;;;6154705;23;20056;-82
2023/01/30 01:18:23;;;;;;;21.08;10.20;;;6.80;99.90;;;;;;6132696;23;20021;-82
2023/01/30 01:20:48;;;;;;;18.60;9.98;;;6.80;99.90;;;;;;6131167;23;20017;-83
2023/01/30 01:23:14;;;;;;;21.25;10.93;;;6.80;99.90;;;;;;6158410;23;20009;-82
2023/01/30 01:25:39;;;;;;;19.13;10.18;;;6.70;99.90;;;;;;6132459;23;20037;-82
2023/01/30 01:28:05;;;;;;;26.85;11.63;;;6.80;99.90;;;;;;6158184;23;20010;-82
2023/01/30 01:30:30;;;;;;;20.80;10.40;;;6.70;99.90;;;;;;6130614;23;20021;-82
2023/01/30 01:32:56;;;;;;;14.50;9.35;;;6.70;99.90;;;;;;6131078;23;20017;-82
2023/01/30 01:35:22;;;;;;;18.35;10.25;;;6.70;99.90;;;;;;6130890;23;20023;-82
2023/01/30 01:37:47;;;;;;;15.52;9.77;;;6.70;99.90;;;;;;6131486;23;20018;-82
2023/01/30 01:43:15;;;;;;;16.67;7.63;;;6.70;99.90;;;;;;6154167;23;20066;-82
2023/01/30 01:45:42;;;;;;;19.15;7.93;;;6.70;99.90;;;;;;6125935;23;20014;-82
2023/01/30 01:48:14;;;;;;;14.07;7.45;;;6.70;99.90;;;;;;6131057;23;20100;-82
2023/01/30 01:50:56;;;;;;;16.88;6.30;;;6.70;99.90;;;;;;6130328;23;20014;-82
2023/01/30 01:53:26;;;;;;;10.25;5.18;;;6.70;99.90;;;;;;6132701;23;20021;-82
2023/01/30 01:55:54;;;;;;;11.18;5.10;;;6.70;99.90;;;;;;6155254;23;20025;-82
2023/01/30 01:58:44;;;;;;;10.57;5.60;;;6.70;99.90;;;;;;6158249;23;20016;-82
2023/01/30 02:01:10;;;;;;;8.35;5.30;;;6.70;99.90;;;;;;6132944;23;20033;-82
2023/01/30 02:03:40;;;;;;;12.73;6.03;;;6.70;99.90;;;;;;6156491;23;20029;-82
2023/01/30 02:06:07;;;;;;;9.73;4.72;;;6.80;99.90;;;;;;6155230;23;20037;-82
2023/01/30 02:08:49;;;;;;;9.88;4.30;;;6.70;99.90;;;;;;6130296;23;20073;-82
2023/01/30 02:11:28;;;;;;;7.05;3.78;;;6.70;99.90;;;;;;6128707;23;20104;-82
2023/01/30 02:13:55;;;;;;;7.50;3.63;;;6.80;99.90;;;;;;6154178;23;20013;-82
2023/01/30 02:16:20;;;;;;;10.40;4.60;;;6.70;99.90;;;;;;6151600;23;20013;-82
2023/01/30 02:18:47;;;;;;;10.30;4.32;;;6.70;99.90;;;;;;6125021;23;20009;-82
2023/01/30 02:21:41;;;;;;;8.35;3.75;;;6.80;99.90;;;;;;6153141;23;20017;-82
2023/01/30 02:24:25;;;;;;;13.85;4.13;;;6.80;99.90;;;;;;6130010;23;20060;-82
2023/01/30 02:27:06;;;;;;;11.00;3.63;;;6.80;99.90;;;;;;6154332;23;20017;-82
2023/01/30 02:29:55;;;;;;;8.82;4.10;;;6.80;99.90;;;;;;6129139;23;20080;-82
2023/01/30 02:32:48;;;;;;;8.80;3.35;;;6.80;99.90;;;;;;6155823;23;20069;-82
2023/01/30 02:35:41;;;;;;;7.97;3.65;;;6.80;99.90;;;;;;6154261;23;20425;-82
2023/01/30 02:38:26;;;;;;;11.00;4.13;;;6.80;99.90;;;;;;6130526;23;20024;-82
2023/01/30 02:41:33;;;;;;;11.20;3.78;;;6.80;99.90;;;;;;6155933;23;20021;-82
2023/01/30 02:44:03;;;;;;;12.68;4.18;;;6.80;99.90;;;;;;6130872;23;20036;-81
2023/01/30 02:46:41;;;;;;;16.00;4.75;;;6.80;99.90;;;;;;6155611;23;20013;-82
2023/01/30 02:49:16;;;;;;;15.13;3.60;;;6.80;99.90;;;;;;6130626;23;20017;-81
2023/01/30 02:51:43;;;;;;;14.13;4.18;;;6.80;99.90;;;;;;6153647;23;20052;-81
2023/01/30 02:54:13;;;;;;;20.35;4.68;;;6.80;99.90;;;;;;6150990;23;20048;-82
2023/01/30 02:56:51;;;;;;;14.40;4.60;;;6.90;99.90;;;;;;6152901;23;20017;-82
2023/01/30 02:59:24;;;;;;;14.18;5.25;;;6.90;99.90;;;;;;6155086;23;20036;-82
2023/01/30 03:02:09;;;;;;;14.57;4.10;;;6.90;99.90;;;;;;6156639;23;20463;-82
2023/01/30 03:04:49;;;;;;;13.75;3.95;;;6.90;99.90;;;;;;6156130;23;20016;-82
2023/01/30 03:07:35;;;;;;;15.07;4.95;;;6.90;99.90;;;;;;6129117;23;20014;-82
2023/01/30 03:10:06;;;;;;;18.73;4.60;;;6.90;99.90;;;;;;6131245;23;20013;-82
2023/01/30 03:12:47;;;;;;;15.07;5.15;;;6.90;99.90;;;;;;6134300;23;20024;-82
2023/01/30 03:15:22;;;;;;;24.23;5.07;;;7.00;99.90;;;;;;6133153;23;20056;-82
2023/01/30 03:17:48;;;;;;;16.58;5.00;;;7.00;99.90;;;;;;6133470;23;20100;-82
2023/01/30 03:20:17;;;;;;;18.92;4.72;;;6.90;99.90;;;;;;6133360;23;20066;-82
2023/01/30 03:22:43;;;;;;;18.70;4.82;;;7.00;99.90;;;;;;6134579;23;20099;-82
2023/01/30 03:25:12;;;;;;;20.45;4.90;;;7.00;99.90;;;;;;6131231;23;20018;-82
2023/01/30 03:27:38;;;;;;;20.67;4.18;;;7.00;99.90;;;;;;6158495;23;20013;-82
2023/01/30 03:30:05;;;;;;;22.50;5.13;;;7.00;99.90;;;;;;6159304;23;20017;-82
2023/01/30 03:32:30;;;;;;;18.88;4.47;;;6.90;99.90;;;;;;6156843;23;20025;-81
2023/01/30 03:34:56;;;;;;;16.20;4.35;;;7.00;99.90;;;;;;6132559;23;20021;-82
2023/01/30 03:37:21;;;;;;;17.70;3.47;;;7.00;99.90;;;;;;6134017;23;20017;-82
2023/01/30 03:39:47;;;;;;;21.33;4.75;;;7.00;99.90;;;;;;6134310;23;20044;-82
2023/01/30 03:42:13;;;;;;;20.42;3.50;;;6.90;99.90;;;;;;6157748;23;20017;-82
2023/01/30 03:44:38;;;;;;;21.52;4.43;;;7.00;99.90;;;;;;6133686;23;20010;-82
2023/01/30 03:47:05;;;;;;;20.77;4.65;;;7.00;99.90;;;;;;6125803;23;20056;-85
2023/01/30 03:49:59;;;;;;;16.10;3.75;;;7.40;99.90;;;;;;6149946;23;20021;-84
2023/01/30 03:52:24;;;;;;;16.52;3.85;;;7.30;99.90;;;;;;6126363;23;20096;-84
2023/01/30 03:54:50;;;;;;;24.95;3.80;;;7.10;99.90;;;;;;6148907;23;20462;-84
2023/01/30 03:57:16;;;;;;;20.00;4.32;;;7.00;99.90;;;;;;6151238;23;20009;-84
2023/01/30 03:59:41;;;;;;;23.15;4.28;;;7.00;99.90;;;;;;6150285;23;20185;-84
2023/01/30 04:02:07;;;;;;;20.25;4.53;;;7.10;99.90;;;;;;6125429;23;20017;-84
2023/01/30 04:04:33;;;;;;;22.33;4.43;;;7.00;99.90;;;;;;6124038;23;20007;-85
2023/01/30 04:06:59;;;;;;;15.90;3.83;;;7.00;99.90;;;;;;6125132;23;20497;-84
2023/01/30 04:09:24;;;;;;;22.02;4.60;;;7.00;99.90;;;;;;6149051;23;20051;-84
2023/01/30 04:11:50;;;;;;;24.52;4.22;;;7.00;99.90;;;;;;6125902;23;20017;-84
2023/01/30 04:14:16;;;;;;;22.10;5.57;;;7.00;99.90;;;;;;6125500;23;20025;-84
2023/01/30 04:16:41;;;;;;;16.52;3.85;;;7.00;99.90;;;;;;6125488;23;20013;-84
2023/01/30 04:19:07;;;;;;;18.80;3.65;;;7.00;99.90;;;;;;6126577;23;20014;-84
2023/01/30 04:21:33;;;;;;;22.25;3.58;;;7.00;99.90;;;;;;6125493;23;20065;-85
2023/01/30 04:23:58;;;;;;;18.65;4.13;;;7.00;99.90;;;;;;6151057;23;20052;-84
2023/01/30 04:26:24;;;;;;;16.52;3.72;;;6.90;99.90;;;;;;6125208;23;20021;-85
2023/01/30 04:28:49;;;;;;;21.42;3.47;;;6.90;99.90;;;;;;6125593;23;20109;-84
2023/01/30 04:31:15;;;;;;;19.83;3.53;;;6.90;99.90;;;;;;6124812;23;20013;-85
2023/01/30 04:33:41;;;;;;;24.38;4.78;;;7.40;99.90;;;;;;6125752;23;20018;-84
2023/01/30 04:36:08;;;;;;;22.98;5.25;;;6.80;99.90;;;;;;6124569;23;20014;-84
2023/01/30 04:38:34;;;;;;;17.38;3.28;;;6.70;99.90;;;;;;6149431;23;20060;-85
2023/01/30 04:41:00;;;;;;;14.23;3.83;;;6.60;99.90;;;;;;6148489;23;20020;-84
2023/01/30 04:43:27;;;;;;;22.85;3.58;;;6.70;99.90;;;;;;6126061;23;20026;-84
2023/01/30 04:45:53;;;;;;;22.25;4.00;;;6.60;99.90;;;;;;6123651;23;20028;-85
2023/01/30 04:48:20;;;;;;;26.27;4.05;;;6.60;99.90;;;;;;6125665;23;20017;-85
2023/01/30 04:50:48;;;;;;;21.17;3.25;;;6.60;99.90;;;;;;6125825;23;20037;-83
2023/01/30 04:53:15;;;;;;;23.17;4.05;;;6.60;99.90;;;;;;6124565;23;20033;-84
2023/01/30 04:55:41;;;;;;;23.17;5.28;;;6.60;99.90;;;;;;6124417;23;20013;-84
2023/01/30 04:58:06;;;;;;;16.85;3.22;;;6.60;99.90;;;;;;6125279;23;20009;-84
2023/01/30 05:00:32;;;;;;;21.90;3.55;;;6.60;99.90;;;;;;6123352;23;20013;-84
2023/01/30 05:02:58;;;;;;;17.75;3.05;;;6.50;99.90;;;;;;6150562;23;20442;-84
2023/01/30 05:05:25;;;;;;;22.35;3.28;;;6.50;99.90;;;;;;6122908;23;20041;-84
2023/01/30 05:07:51;;;;;;;20.15;4.07;;;6.50;99.90;;;;;;6125409;23;20451;-85
2023/01/30 05:10:18;;;;;;;31.65;5.13;;;6.40;99.90;;;;;;6123576;23;20024;-84
2023/01/30 05:12:43;;;;;;;18.70;4.00;;;6.40;99.90;;;;;;6149060;23;20028;-84
2023/01/30 05:15:10;;;;;;;20.27;4.25;;;6.30;99.90;;;;;;6122889;23;20036;-85
2023/01/30 05:17:36;;;;;;;21.05;4.82;;;6.30;99.90;;;;;;6124671;23;20339;-85
2023/01/30 05:20:02;;;;;;;17.40;3.10;;;6.30;99.90;;;;;;6149363;23;20021;-83
2023/01/30 05:22:27;;;;;;;22.48;3.55;;;6.30;99.90;;;;;;6127158;23;20009;-84
2023/01/30 05:24:53;;;;;;;21.92;3.72;;;6.30;99.90;;;;;;6150904;23;20406;-84
2023/01/30 05:27:19;;;;;;;30.20;4.50;;;6.40;99.90;;;;;;6126477;23;20545;-83
2023/01/30 05:29:44;;;;;;;19.92;3.55;;;6.20;99.90;;;;;;6148687;23;20017;-84
2023/01/30 05:32:15;;;;;;;18.15;3.88;;;6.30;99.90;;;;;;6151520;23;20040;-84
2023/01/30 05:34:41;;;;;;;17.70;3.47;;;6.30;99.90;;;;;;6125507;23;20754;-83
2023/01/30 05:37:07;;;;;;;23.75;4.72;;;6.20;99.90;;;;;;6153388;23;20021;-82
2023/01/30 05:39:33;;;;;;;19.83;3.78;;;6.20;99.90;;;;;;6129621;23;20020;-83
2023/01/30 05:41:59;;;;;;;15.98;3.03;;;6.10;99.90;;;;;;6129503;23;20723;-82
2023/01/30 05:44:24;;;;;;;23.58;4.28;;;6.10;99.90;;;;;;6129392;23;20469;-82
2023/01/30 05:46:50;;;;;;;25.52;4.78;;;6.10;99.90;;;;;;6123440;23;20022;-82
2023/01/30 05:49:15;;;;;;;25.60;5.25;;;6.00;99.90;;;;;;6130178;23;20044;-80
2023/01/30 05:51:41;;;;;;;23.45;4.28;;;6.00;99.90;;;;;;6132484;23;20014;-82
2023/01/30 05:54:07;;;;;;;27.30;4.72;;;5.90;99.90;;;;;;6131119;23;20013;-80
2023/01/30 05:56:33;;;;;;;24.65;5.05;;;5.90;99.90;;;;;;6128084;23;20029;-81
2023/01/30 05:59:00;;;;;;;22.95;3.95;;;5.90;99.90;;;;;;6155641;23;20045;-80
2023/01/30 06:01:27;;;;;;;22.17;3.63;;;5.90;99.90;;;;;;6155120;23;20049;-81
2023/01/30 06:03:53;;;;;;;27.20;5.07;;;5.80;99.90;;;;;;6127059;23;20024;-81
2023/01/30 06:06:19;;;;;;;26.55;5.15;;;5.80;99.90;;;;;;6131821;23;20021;-82
2023/01/30 06:08:45;;;;;;;21.23;3.47;;;5.80;99.90;;;;;;6132326;23;20015;-83
2023/01/30 06:11:14;;;;;;;30.25;3.80;;;5.70;99.90;;;;;;6152927;23;20076;-81
2023/01/30 06:13:40;;;;;;;19.33;4.22;;;5.60;99.90;;;;;;6134453;23;20018;-83
2023/01/30 06:16:08;;;;;;;16.88;4.72;;;5.70;99.90;;;;;;6150822;23;20741;-84
2023/01/30 06:18:34;;;;;;;29.48;5.80;;;5.60;99.90;;;;;;6149010;23;20036;-84
2023/01/30 06:21:00;;;;;;;25.60;4.05;;;5.70;99.90;;;;;;6127228;23;20013;-83
2023/01/30 06:23:26;;;;;;;22.83;4.60;;;5.70;99.90;;;;;;6126191;23;20212;-84
2023/01/30 06:25:53;;;;;;;26.98;4.57;;;5.70;99.90;;;;;;6149859;23;20017;-84
2023/01/30 06:28:19;;;;;;;26.25;4.72;;;5.60;99.90;;;;;;6128069;23;20088;-83
2023/01/30 06:30:45;;;;;;;27.70;5.13;;;5.70;99.90;;;;;;6151558;23;20044;-83
2023/01/30 06:33:10;;;;;;;21.00;3.65;;;5.70;99.90;;;;;;6129878;23;20017;-83
2023/01/30 06:35:37;;;;;;;22.52;3.95;;;5.70;99.90;;;;;;6121313;23;20076;-84
2023/01/30 06:38:03;;;;;;;25.75;4.25;;;5.80;99.90;;;;;;6128068;23;20005;-87
2023/01/30 06:40:29;;;;;;;26.55;5.78;;;5.80;99.90;;;;;;6129963;23;20683;-83
2023/01/30 06:42:54;;;;;;;19.08;4.57;;;5.80;99.90;;;;;;6136136;23;20060;-81
2023/01/30 06:45:20;;;;;;;29.23;3.97;;;5.80;99.90;;;;;;6157709;23;20076;-81
2023/01/30 06:47:51;;;;;;;21.98;4.28;;;5.80;99.90;;;;;;6160316;23;20017;-81
2023/01/30 06:50:18;;;;;;;31.55;4.65;;;5.90;99.90;;;;;;6136209;23;20017;-81
2023/01/30 06:52:45;;;;;;;28.98;5.28;;;5.90;99.90;;;;;;6136215;23;20048;-81
2023/01/30 06:55:13;;;;;;;26.75;5.45;;;5.80;99.90;;;;;;6135413;23;20087;-81
2023/01/30 06:57:39;;;;;;;25.20;4.38;;;5.80;99.90;;;;;;6137104;23;20730;-82
2023/01/30 07:00:07;;;;;;;28.90;4.68;;;5.80;99.90;;;;;;6158188;23;20014;-81
2023/01/30 07:02:34;;;;;;;24.85;3.70;;;5.80;99.90;;;;;;6135776;23;20013;-81
2023/01/30 07:05:05;;;;;;;28.10;5.30;;;5.70;99.90;;;;;;6130410;23;20017;-82
2023/01/30 07:07:30;;;;;;;26.77;4.72;;;5.70;99.90;;;;;;6130142;23;20009;-82
2023/01/30 07:09:57;;;;;;;24.10;3.80;;;5.70;99.90;;;;;;6130245;23;20627;-81
2023/01/30 07:12:23;;;;;;;23.00;4.15;;;5.80;99.90;;;;;;6129277;23;20666;-83
2023/01/30 07:14:49;;;;;;;28.05;4.50;;;5.80;99.90;;;;;;6153401;23;20010;-83
2023/01/30 07:17:16;;;;;;;28.65;4.82;;;5.80;99.90;;;;;;6128944;23;20021;-83
2023/01/30 07:19:42;;;;;;;25.85;4.85;;;5.70;99.90;;;;;;6128976;23;20013;-83
2023/01/30 07:22:08;;;;;;;31.08;4.85;;;5.80;99.90;;;;;;6129449;23;20025;-84
2023/01/30 07:24:33;;;;;;;18.05;4.45;;;5.80;99.90;;;;;;6129025;23;20013;-84
2023/01/30 07:26:59;;;;;;;26.85;4.30;;;5.80;99.90;;;;;;6128395;23;20076;-83
2023/01/30 07:29:24;;;;;;;23.27;4.55;;;5.80;99.90;;;;;;6129493;23;20045;-83
2023/01/30 07:31:50;;;;;;;29.45;5.63;;;5.90;99.90;;;;;;6129813;23;20023;-83
2023/01/30 07:34:16;;;;;;;27.05;4.78;;;5.80;99.90;;;;;;6130050;23;20061;-83
2023/01/30 07:36:41;;;;;;;23.13;4.30;;;5.90;99.90;;;;;;6128515;23;20021;-83
2023/01/30 07:39:08;;;;;;;28.52;5.03;;;5.90;99.90;;;;;;6152790;23;20014;-82
2023/01/30 07:41:34;;;;;;;25.27;5.72;;;5.80;99.90;;;;;;6152981;23;20072;-83
2023/01/30 07:44:00;;;;;;;27.75;5.45;;;5.90;99.90;;;;;;6153790;23;20492;-83
2023/01/30 07:46:33;;;;;;;22.58;4.07;;;5.90;99.90;;;;;;6128531;23;20100;-83
2023/01/30 07:48:59;;;;;;;28.20;5.60;;;6.00;99.90;;;;;;6129849;23;20100;-83
2023/01/30 07:51:25;;;;;;;25.33;4.78;;;6.00;99.90;;;;;;6129394;23;20062;-83
2023/01/30 07:53:50;;;;;;;27.48;3.88;;;6.00;99.90;;;;;;6129471;23;20026;-83
2023/01/30 07:56:18;;;;;;;28.27;5.47;;;6.10;99.90;;;;;;6127355;23;20021;-83
2023/01/30 07:58:44;;;;;;;25.33;5.50;;;6.00;99.90;;;;;;6153952;23;20115;-83
2023/01/30 08:01:10;;;;;;;23.75;3.47;;;6.10;99.90;;;;;;6129204;23;20049;-83
2023/01/30 08:03:35;;;;;;;25.30;4.78;;;6.10;99.90;;;;;;6154284;23;20036;-83
2023/01/30 08:06:01;;;;;;;23.25;5.03;;;6.10;99.90;;;;;;6128048;23;20032;-82
2023/01/30 08:08:26;;;;;;;25.23;4.03;;;6.10;99.90;;;;;;6154449;23;20407;-83
2023/01/30 08:10:52;;;;;;;22.25;3.95;;;6.10;99.90;;;;;;6154314;23;20018;-82
2023/01/30 08:13:18;;;;;;;22.30;3.75;;;6.10;99.90;;;;;;6128399;23;20677;-83
2023/01/30 08:15:43;;;;;;;25.33;4.72;;;6.10;99.90;;;;;;6151291;23;20022;-82
2023/01/30 08:18:09;;;;;;;30.13;4.50;;;6.10;99.90;;;;;;6128219;23;20020;-81
2023/01/30 08:20:35;;;;;;;27.95;4.20;;;6.10;99.90;;;;;;6134615;23;20024;-81
2023/01/30 08:23:01;;;;;;;27.90;4.57;;;6.10;99.90;;;;;;6129917;23;20009;-85
2023/01/30 08:25:27;;;;;;;24.35;4.78;;;6.10;99.90;;;;;;6153366;23;20017;-83
2023/01/30 08:27:53;;;;;;;24.65;4.53;;;6.20;99.90;;;;;;6131109;23;20028;-84
2023/01/30 08:30:19;;;;;;;19.98;4.32;;;6.20;99.90;;;;;;6101568;23;20687;-82
2023/01/30 08:32:45;;;;;;;33.53;4.68;;;6.30;99.90;;;;;;6148669;23;20030;-82
2023/01/30 08:35:11;;;;;;;36.67;4.93;;;6.30;99.90;;;;;;6125843;23;20022;-83
2023/01/30 08:37:38;;;;;;;24.58;5.78;;;6.30;99.90;;;;;;6152766;23;20009;-83
2023/01/30 08:40:04;;;;;;;28.83;4.30;;;6.30;99.90;;;;;;6150334;23;20017;-82
2023/01/30 08:42:30;;;;;;;26.85;5.20;;;6.40;99.90;;;;;;6149183;23;20020;-82
2023/01/30 08:44:55;;;;;;;23.95;4.47;;;6.40;99.90;;;;;;6149569;23;20013;-82
2023/01/30 08:47:21;;;;;;;23.50;5.07;;;6.30;99.90;;;;;;6125301;23;20017;-81
2023/01/30 08:49:47;;;;;;;21.70;4.32;;;6.40;99.90;;;;;;6150836;23;20027;-82
2023/01/30 08:52:12;;;;;;;28.48;5.70;;;6.40;99.90;;;;;;6128435;23;20485;-82
2023/01/30 08:54:38;;;;;;;31.50;6.45;;;6.50;99.90;;;;;;6125394;23;20752;-82
2023/01/30 08:57:03;;;;;;;23.02;4.13;;;6.50;99.90;;;;;;6125420;23;20355;-82
2023/01/30 08:59:29;;;;;;;27.00;5.95;;;6.50;99.90;;;;;;6150886;23;20048;-81
2023/01/30 09:01:55;;;;;;;32.78;5.60;;;6.50;99.90;;;;;;6127165;23;20524;-82
2023/01/30 09:04:23;;;;;;;23.65;5.22;;;6.50;99.90;;;;;;6125064;23;20014;-82
2023/01/30 09:06:49;;;;;;;29.00;6.38;;;6.60;99.90;;;;;;6150042;23;20475;-82
2023/01/30 09:09:15;;;;;;;26.05;4.75;;;6.50;99.90;;;;;;6151187;23;20017;-83
2023/01/30 09:11:40;;;;;;;28.98;5.18;;;6.60;99.90;;;;;;6127172;23;20021;-84
2023/01/30 09:14:06;;;;;;;32.38;5.00;;;6.50;99.90;;;;;;6128952;23;20086;-83
2023/01/30 09:16:31;;;;;;;27.52;5.00;;;6.60;99.90;;;;;;6125227;23;20018;-83
2023/01/30 09:18:57;;;;;;;28.45;4.63;;;6.70;99.90;;;;;;6150536;23;20017;-83
2023/01/30 09:21:23;;;;;;;27.60;4.82;;;6.70;99.90;;;;;;6151766;23;20024;-83
2023/01/30 09:23:49;;;;;;;30.40;4.65;;;6.70;99.90;;;;;;6151213;23;20013;-82
2023/01/30 09:26:14;;;;;;;21.13;4.78;;;6.80;99.90;;;;;;6124996;23;20053;-82
2023/01/30 09:28:40;;;;;;;29.88;5.55;;;6.80;99.90;;;;;;6127555;23;20362;-83
2023/01/30 09:31:05;;;;;;;21.23;4.65;;;6.90;99.90;;;;;;6126485;23;20024;-82
2023/01/30 09:33:31;;;;;;;21.40;4.05;;;6.90;99.90;;;;;;6146757;23;20457;-82
2023/01/30 09:35:57;;;;;;;28.15;4.80;;;6.80;99.90;;;;;;6126082;23;20018;-82
2023/01/30 09:38:22;;;;;;;25.42;4.85;;;6.90;99.90;;;;;;6125637;23;20346;-81
2023/01/30 09:41:11;;;;;;;25.10;5.72;;;7.00;99.90;;;;;;6149393;23;20017;-81
2023/01/30 09:43:49;;;;;;;28.38;7.15;;;7.10;99.90;;;;;;6124863;23;20020;-81
2023/01/30 09:46:24;;;;;;;28.60;4.57;;;7.20;99.90;;;;;;6124673;23;20021;-82
2023/01/30 09:49:02;;;;;;;29.45;6.00;;;7.30;99.90;;;;;;6150673;23;20028;-81
2023/01/30 09:51:57;;;;;;;27.02;4.90;;;7.30;99.90;;;;;;6125906;23;20024;-81
2023/01/30 09:54:33;;;;;;;25.60;4.40;;;7.40;99.90;;;;;;6123777;23;20373;-81
2023/01/30 09:57:07;;;;;;;21.80;4.53;;;7.40;99.90;;;;;;6125182;23;20024;-82
2023/01/30 09:59:47;;;;;;;30.98;5.80;;;7.30;99.90;;;;;;6152655;23;20013;-82
2023/01/30 10:02:39;;;;;;;24.35;6.20;;;7.40;99.90;;;;;;6127684;23;20391;-82
2023/01/30 10:05:06;;;;;;;25.15;4.70;;;7.40;99.90;;;;;;6151220;23;20009;-83
2023/01/30 10:07:59;;;;;;;27.63;4.55;;;7.40;99.90;;;;;;6132033;23;20017;-81
2023/01/30 10:10:50;;;;;;;29.38;6.13;;;7.40;99.90;;;;;;6154586;23;20039;-81
2023/01/30 10:13:15;;;;;;;26.95;4.70;;;7.40;99.90;;;;;;6153666;23;20560;-83
2023/01/30 10:16:08;;;;;;;25.10;4.47;;;7.40;99.90;;;;;;6126335;23;20076;-83
2023/01/30 10:19:05;;;;;;;21.02;4.00;;;7.40;99.90;;;;;;6155026;23;20017;-82
2023/01/30 10:21:35;;;;;;;24.77;4.45;;;7.40;99.90;;;;;;6154615;23;20474;-82
2023/01/30 10:24:18;;;;;;;28.10;4.95;;;7.50;99.90;;;;;;6131893;23;20533;-85
2023/01/30 10:26:44;;;;;;;25.63;4.43;;;7.60;99.90;;;;;;6128805;23;20021;-80
2023/01/30 10:29:21;;;;;;;22.65;4.75;;;7.70;99.90;;;;;;6153917;23;20021;-82
2023/01/30 10:31:58;;;;;;;23.63;4.60;;;7.80;99.90;;;;;;6125809;23;20637;-83
2023/01/30 10:34:30;;;;;;;28.50;5.20;;;7.80;99.90;;;;;;6149898;23;20017;-81
2023/01/30 10:37:16;;;;;;;30.33;6.38;;;7.80;99.90;;;;;;6129166;23;20017;-82
2023/01/30 10:40:10;;;;;;;25.73;5.00;;;7.80;99.90;;;;;;6129140;23;20014;-82
2023/01/30 10:43:03;;;;;;;21.80;4.20;;;7.80;99.90;;;;;;6129413;23;20065;-82
2023/01/30 10:45:40;;;;;;;36.53;5.97;;;7.80;99.90;;;;;;6153154;23;20017;-82
2023/01/30 10:48:51;;;;;;;21.63;4.63;;;7.90;99.90;;;;;;6131226;23;20501;-81
2023/01/30 10:52:06;;;;;;;28.40;5.50;;;7.90;99.90;;;;;;6019311;23;20033;-82
2023/01/30 10:54:34;;;;;;;24.27;5.03;;;7.90;99.90;;;;;;6129713;23;20013;-82
2023/01/30 10:57:27;;;;;;;27.05;4.88;;;8.00;99.90;;;;;;6130420;23;20010;-82
2023/01/30 11:00:04;;;;;;;26.60;4.90;;;8.10;99.90;;;;;;6131038;23;20044;-81
2023/01/30 11:02:52;;;;;;;27.52;5.57;;;8.20;99.90;;;;;;6154632;23;20014;-82
2023/01/30 11:05:22;;;;;;;26.13;4.50;;;8.20;99.90;;;;;;6130216;23;20067;-82
2023/01/30 11:07:49;;;;;;;27.83;6.03;;;8.20;99.90;;;;;;6130031;23;20046;-80
2023/01/30 11:10:26;;;;;;;29.30;5.20;;;8.10;99.90;;;;;;6155812;23;20080;-81
2023/01/30 11:13:30;;;;;;;31.23;5.22;;;8.00;99.90;;;;;;6156935;23;20010;-81
2023/01/30 11:16:04;;;;;;;29.92;6.82;;;7.80;99.90;;;;;;6114812;23;20021;-81
2023/01/30 11:18:30;;;;;;;26.20;5.07;;;7.80;99.90;;;;;;6131355;23;20386;-80
2023/01/30 11:21:06;;;;;;;19.60;4.78;;;7.50;99.90;;;;;;6155961;23;20017;-81
2023/01/30 11:23:40;;;;;;;20.90;5.00;;;7.60;99.90;;;;;;6130355;23;20021;-81
2023/01/30 11:26:06;;;;;;;23.00;4.43;;;7.70;99.90;;;;;;6130068;23;20113;-81
2023/01/30 11:28:41;;;;;;;16.33;3.45;;;7.80;99.90;;;;;;6155168;23;20022;-80
2023/01/30 11:31:17;;;;;;;17.23;2.72;;;7.90;99.90;;;;;;6154577;23;20477;-81
2023/01/30 11:33:43;;;;;;;;;;;8.00;99.90;;;;;;6157166;23;20029;-81
2023/01/30 11:36:26;;;;;;;15.65;2.17;;;8.10;99.90;;;;;;6153891;23;19920;-80
2023/01/30 11:38:56;;;;;;;13.38;2.95;;;8.20;99.90;;;;;;6132699;23;20017;-81
2023/01/30 11:41:22;;;;;;;20.95;3.65;;;8.30;99.90;;;;;;6130990;23;20018;-81
2023/01/30 11:43:47;;;;;;;17.95;3.85;;;8.30;99.90;;;;;;6132713;23;20447;-81
2023/01/30 11:46:17;;;;;;;23.30;3.95;;;8.40;99.90;;;;;;6129095;23;20017;-81
2023/01/30 11:48:53;;;;;;;21.75;4.60;;;8.30;99.90;;;;;;6156685;23;20465;-81
2023/01/30 11:51:22;;;;;;;20.92;4.20;;;8.20;99.90;;;;;;6156935;23;20017;-81
2023/01/30 11:53:58;;;;;;;26.48;5.32;;;8.00;99.90;;;;;;6154816;23;20064;-80
2023/01/30 11:56:31;;;;;;;;;;;7.90;99.90;;;;;;6130975;23;20021;-80
2023/01/30 11:59:23;;;;;;;22.33;3.92;;;7.80;99.90;;;;;;6133047;23;19912;-81
2023/01/30 12:01:49;;;;;;;18.80;3.53;;;7.70;99.90;;;;;;6085198;23;20064;-81
2023/01/30 12:04:14;;;;;;;9.75;1.65;;;7.70;99.90;;;;;;6130288;23;20354;-80
2023/01/30 12:06:42;;;;;;;12.30;1.92;;;7.60;99.90;;;;;;6130905;23;20040;-81
2023/01/30 12:09:30;;;;;;;10.15;1.95;;;7.40;99.90;;;;;;6157423;23;20017;-80
2023/01/30 12:11:56;;;;;;;10.48;2.38;;;7.40;99.90;;;;;;6134251;23;20113;-80
2023/01/30 12:14:42;;;;;;;8.55;1.60;;;7.30;99.90;;;;;;6156122;23;20021;-81
2023/01/30 12:17:20;;;;;;;7.82;1.20;;;7.30;99.90;;;;;;6154543;23;20533;-80
2023/01/30 12:19:55;;;;;;;12.05;2.28;;;7.40;99.90;;;;;;6130807;23;20024;-80
2023/01/30 12:22:55;;;;;;;13.43;2.63;;;7.70;99.90;;;;;;6132552;23;20075;-80
2023/01/30 12:25:26;;;;;;;8.23;1.58;;;7.90;99.90;;;;;;6154998;23;20052;-80
2023/01/30 12:28:03;;;;;;;16.25;2.63;;;8.60;99.90;;;;;;6156855;23;20083;-80
2023/01/30 12:30:44;;;;;;;14.02;2.60;;;8.20;99.90;;;;;;6155739;23;20389;-80
2023/01/30 12:33:14;;;;;;;15.93;3.30;;;8.10;99.90;;;;;;6157087;23;20017;-80
2023/01/30 12:35:49;;;;;;;22.50;3.45;;;8.10;99.90;;;;;;6130912;23;20090;-80
2023/01/30 12:38:29;;;;;;;22.70;3.65;;;8.00;99.90;;;;;;6158074;23;20044;-80
2023/01/30 12:41:20;;;;;;;19.02;3.15;;;8.10;99.90;;;;;;6156105;23;20024;-80
2023/01/30 12:43:59;;;;;;;15.38;3.28;;;8.10;99.90;;;;;;6155209;23;20013;-81
2023/01/30 12:46:35;;;;;;;18.23;3.03;;;8.10;99.90;;;;;;6127438;23;20017;-80
2023/01/30 12:49:31;;;;;;;20.30;3.20;;;8.10;99.90;;;;;;6153514;23;20403;-80
2023/01/30 12:52:03;;;;;;;16.60;2.58;;;8.10;99.90;;;;;;6129637;23;20092;-80
2023/01/30 12:55:04;;;;;;;16.92;2.90;;;8.10;99.90;;;;;;6128141;23;20021;-82
2023/01/30 12:57:41;;;;;;;19.88;2.95;;;8.00;99.90;;;;;;6153277;23;20323;-83
2023/01/30 13:00:31;;;;;;;16.05;2.25;;;7.90;99.90;;;;;;6151919;23;20017;-83
2023/01/30 13:03:28;;;;;;;14.00;3.05;;;7.90;99.90;;;;;;6152770;23;20072;-82
2023/01/30 13:06:23;;;;;;;18.50;2.47;;;8.00;99.90;;;;;;6127053;23;20039;-82
2023/01/30 13:08:58;;;;;;;11.80;2.20;;;8.00;99.90;;;;;;6153295;23;20589;-81
2023/01/30 13:11:54;;;;;;;12.63;2.50;;;8.00;99.90;;;;;;6128856;23;20417;-82
2023/01/30 13:14:51;;;;;;;12.73;2.88;;;8.10;99.90;;;;;;6153260;23;20017;-82
2023/01/30 13:17:52;;;;;;;8.15;1.77;;;8.10;99.90;;;;;;6154430;23;20038;-82